49A

Gilmer County Airport

Ellijay, Georgia, USA
METAR K49A 181255Z AUTO 07003KT 10SM CLR 23/20 A3024 RMK AO2 T02330204
Observed Flight Rules
Jun-18 @ 12:55 UTC (16 minutes ago) Visual Flight Rules
Wind Visibility Clouds
70° at 3 knots 10 miles
  • Clear skies
Temperatures Readings
Current 23°C / 73°F
Dewpoint 20°C / 68°F
Humidity 83%
Altimeter 30.24" Hg
Pressure 1024 hPa
Elevation 453
METAR K49A 181255Z AUTO 07003KT 10SM CLR 23/20 A3024 RMK AO2 T02330204
Observed Flight Rules
Jun-18 @ 12:55 UTC
(16 minutes ago)
VFR
Wind Visibility
70° at 3 knots 10 miles
Clouds
  • Clear skies
Temperature Dewpoint
23°C / 73°F 20°C / 68°F
Humidity Altimeter Pressure
83% 30.24" Hg 1024 hPa